Time;durP1;ratioP1;P1;durP2;ratioP2;P2;SDS_P1;SDS_P2;PMS_P1;PMS_P2;Temp;Humidity;BMP_temperature;BMP_pressure;BME280_temperature;BME280_humidity;BME280_pressure;Samples;Min_cycle;Max_cycle;Signal;HPM_P1;HPM_P2
2023/05/27 00:02:16;;;;;;;;;;;;;;;14.40;100.00;97759.13;10368925;28;20032;-51
2023/05/27 00:07:15;;;;;;;11.27;5.33;;;;;;;14.39;100.00;97758.28;10368861;28;20724;-50
2023/05/27 00:12:15;;;;;;;;;;;;;;;14.28;100.00;97760.19;10367216;28;20482;-50
2023/05/27 00:17:14;;;;;;;9.48;5.65;;;;;;;14.14;100.00;97762.16;10365374;28;19956;-51
2023/05/27 00:22:13;;;;;;;;;;;;;;;14.06;100.00;97756.22;10358937;28;20068;-50
2023/05/27 00:27:12;;;;;;;10.87;5.83;;;;;;;14.07;100.00;97753.56;10365970;28;19963;-51
2023/05/27 00:32:10;;;;;;;;;;;;;;;14.05;100.00;97747.50;10367455;28;20033;-50
2023/05/27 00:37:09;;;;;;;12.68;6.45;;;;;;;14.06;100.00;97740.56;10366231;28;20017;-50
2023/05/27 00:42:10;;;;;;;;;;;;;;;14.17;100.00;97746.44;10365194;28;20076;-50
2023/05/27 00:47:09;;;;;;;11.75;6.15;;;;;;;14.19;100.00;97729.91;10363058;28;19963;-50
2023/05/27 00:52:08;;;;;;;13.27;6.90;;;;;;;14.23;100.00;97735.91;10360250;28;20558;-51
2023/05/27 00:57:07;;;;;;;10.70;6.70;;;;;;;14.21;100.00;97719.41;10365589;28;20068;-51
2023/05/27 01:02:06;;;;;;;;;;;;;;;14.16;100.00;97724.72;10366080;28;20029;-51
2023/05/27 01:07:13;;;;;;;11.53;7.07;;;;;;;14.06;100.00;97717.06;10365042;28;19959;-50
2023/05/27 01:12:31;;;;;;;10.05;7.25;;;;;;;13.98;100.00;97717.16;10365270;28;20061;-51
2023/05/27 01:17:32;;;;;;;13.70;8.45;;;;;;;13.75;100.00;97676.66;10364828;28;20064;-50
2023/05/27 01:22:31;;;;;;;17.00;8.75;;;;;;;13.80;100.00;97680.91;10365628;28;20104;-51
2023/05/27 01:27:32;;;;;;;14.48;8.60;;;;;;;13.89;100.00;97694.72;10364626;28;20068;-51
2023/05/27 01:32:41;;;;;;;14.77;8.82;;;;;;;13.73;100.00;97669.75;10363967;28;20511;-51
2023/05/27 01:37:43;;;;;;;13.40;8.35;;;;;;;13.70;100.00;97669.75;10362256;28;20069;-51
2023/05/27 01:42:43;;;;;;;16.13;9.93;;;;;;;13.79;100.00;97687.88;10364581;28;20516;-51
2023/05/27 01:47:44;;;;;;;16.00;9.50;;;;;;;13.82;100.00;97681.75;10364352;28;20067;-52
2023/05/27 01:52:44;;;;;;;15.43;9.07;;;;;;;13.63;100.00;97644.66;10364615;28;20127;-51
2023/05/27 01:57:43;;;;;;;16.02;8.70;;;;;;;13.83;100.00;97666.09;10370155;28;20052;-49
2023/05/27 02:02:42;;;;;;;13.73;8.23;;;;;;;13.66;100.00;97629.84;10371933;28;20552;-50
2023/05/27 02:07:42;;;;;;;17.33;8.50;;;;;;;13.64;100.00;97613.38;10370923;28;20064;-49
2023/05/27 02:12:41;;;;;;;14.50;8.05;;;;;;;13.95;100.00;97672.88;10371005;28;20061;-52
2023/05/27 02:17:39;;;;;;;;;;;;;;;13.98;100.00;97657.16;10371210;28;20032;-51
2023/05/27 02:22:38;;;;;;;10.17;5.67;;;;;;;14.00;100.00;97655.38;10371296;28;19917;-50
2023/05/27 02:27:37;;;;;;;;;;;;;;;13.96;100.00;97662.41;10371062;28;20112;-48
2023/05/27 02:32:36;;;;;;;13.65;8.20;;;;;;;13.92;100.00;97660.75;10369362;28;19968;-50
2023/05/27 02:37:35;;;;;;;;;;;;;;;13.79;100.00;97672.25;10371392;28;20041;-50
2023/05/27 02:42:33;;;;;;;15.80;9.00;;;;;;;13.53;100.00;97657.81;10370366;28;20014;-52
2023/05/27 02:47:32;;;;;;;;;;;;;;;13.56;100.00;97657.81;10370188;28;20398;-51
2023/05/27 02:52:31;;;;;;;16.52;8.63;;;;;;;13.37;100.00;97656.28;10369936;28;20346;-50
2023/05/27 02:57:30;;;;;;;;;;;;;;;13.30;100.00;97667.69;10370275;28;20120;-52
2023/05/27 03:02:29;;;;;;;18.40;10.82;;;;;;;13.37;100.00;97666.72;10369635;28;19960;-50
2023/05/27 03:07:30;;;;;;;;;;;;;;;13.45;100.00;97680.53;10369371;28;20035;-49
2023/05/27 03:12:29;;;;;;;21.95;12.70;;;;;;;13.52;100.00;97678.69;10369377;28;19971;-50
2023/05/27 03:17:28;;;;;;;;;;;;;;;13.60;100.00;97679.47;10367991;28;20072;-50
2023/05/27 03:22:27;;;;;;;27.00;15.17;;;;;;;13.72;100.00;97684.50;10368536;28;20026;-50
2023/05/27 03:27:26;;;;;;;;;;;;;;;13.84;100.00;97678.25;10368938;28;20037;-52
2023/05/27 03:32:25;;;;;;;24.50;14.40;;;;;;;13.93;100.00;97674.63;10368106;28;19952;-51
2023/05/27 03:37:24;;;;;;;;;;;;;;;13.97;100.00;97682.38;10367869;28;20102;-52
2023/05/27 03:42:23;;;;;;;26.33;15.10;;;;;;;14.05;100.00;97694.44;10367750;28;20406;-52
2023/05/27 03:47:22;;;;;;;;;;;;;;;14.08;100.00;97694.44;10367339;28;20511;-51
2023/05/27 03:52:20;;;;;;;19.85;11.60;;;;;;;14.11;100.00;97689.16;10367674;28;19912;-50
2023/05/27 03:57:19;;;;;;;;;;;;;;;14.07;100.00;97690.06;10367944;28;20032;-52
2023/05/27 04:02:18;;;;;;;22.35;12.82;;;;;;;14.09;100.00;97697.00;10367172;28;19967;-50
2023/05/27 04:07:17;;;;;;;23.42;12.90;;;;;;;14.23;100.00;97698.53;10366325;28;20369;-51
2023/05/27 04:12:16;;;;;;;32.28;19.00;;;;;;;14.37;100.00;97705.22;10367306;28;20075;-51
2023/05/27 04:17:17;;;;;;;;;;;;;;;14.49;100.00;97695.47;10366393;28;20028;-51
2023/05/27 04:22:15;;;;;;;28.05;15.13;;;;;;;14.54;100.00;97698.84;10365945;28;20280;-50
2023/05/27 04:27:16;;;;;;;;;;;;;;;14.67;100.00;97705.59;10367158;28;20289;-50
2023/05/27 04:32:17;;;;;;;23.70;14.07;;;;;;;14.80;100.00;97704.50;10365417;28;20431;-52
2023/05/27 04:37:17;;;;;;;23.70;14.35;;;;;;;14.82;100.00;97707.06;10364916;28;20103;-49
2023/05/27 04:42:16;;;;;;;21.58;12.55;;;;;;;14.88;99.80;97706.97;10365784;28;20559;-52
2023/05/27 04:47:15;;;;;;;23.23;13.90;;;;;;;14.96;100.00;97705.06;10364307;28;20080;-52
2023/05/27 04:52:14;;;;;;;19.20;11.85;;;;;;;15.10;98.73;97704.78;10365757;28;20132;-49
2023/05/27 04:57:18;;;;;;;;;;;;;;;15.32;98.24;97720.03;10365811;28;20040;-52
2023/05/27 05:02:25;;;;;;;13.07;9.40;;;;;;;15.55;96.05;97717.81;10365513;28;20006;-52
2023/05/27 05:07:23;;;;;;;14.35;10.15;;;;;;;15.51;94.95;97718.78;10364697;28;20087;-53
2023/05/27 05:12:23;;;;;;;13.95;9.93;;;;;;;15.40;94.99;97720.75;10364625;28;20128;-52
2023/05/27 05:17:24;;;;;;;12.90;8.73;;;;;;;15.61;96.70;97727.28;10364781;28;20087;-51
2023/05/27 05:22:23;;;;;;;10.65;8.05;;;;;;;15.89;95.56;97730.19;10365232;28;20083;-52
2023/05/27 05:27:22;;;;;;;9.60;7.53;;;;;;;16.07;94.39;97737.59;10365975;28;20171;-51
2023/05/27 05:32:21;;;;;;;10.48;6.93;;;;;;;16.21;92.24;97734.66;10370338;28;20108;-52
2023/05/27 05:37:19;;;;;;;;;;;;;;;16.39;91.26;97735.97;10372348;28;20041;-52
2023/05/27 05:42:18;;;;;;;10.17;7.17;;;;;;;16.43;89.77;97734.13;10372689;28;19956;-50
2023/05/27 05:47:17;;;;;;;11.38;7.25;;;;;;;16.46;90.69;97729.66;10371700;28;20087;-50
2023/05/27 05:52:16;;;;;;;14.30;6.60;;;;;;;16.83;90.00;97744.50;10372064;28;20133;-52
2023/05/27 05:57:15;;;;;;;9.70;7.15;;;;;;;16.95;87.21;97745.91;10371919;28;20043;-52
2023/05/27 06:02:14;;;;;;;8.30;5.32;;;;;;;16.82;86.77;97758.50;10369841;28;20575;-52
2023/05/27 06:07:13;;;;;;;7.82;5.72;;;;;;;16.83;86.22;97752.34;10369412;28;20036;-50
2023/05/27 06:12:12;;;;;;;8.70;5.97;;;;;;;16.87;88.08;97751.38;10358861;28;20119;-49
2023/05/27 06:17:11;;;;;;;8.93;5.88;;;;;;;17.02;87.48;97762.34;10359515;28;20145;-51
2023/05/27 06:22:10;;;;;;;11.75;5.57;;;;;;;16.43;87.40;97679.13;10365446;28;20043;-52
2023/05/27 06:27:10;;;;;;;7.55;4.80;;;;;;;17.03;88.03;97761.47;10364883;28;20445;-54
2023/05/27 06:32:09;;;;;;;7.25;4.60;;;;;;;17.09;84.78;97764.75;10366288;28;20115;-49
2023/05/27 06:37:08;;;;;;;5.97;4.38;;;;;;;17.08;85.33;97776.16;10368220;28;20120;-52
2023/05/27 06:42:07;;;;;;;7.60;4.80;;;;;;;17.12;85.88;97777.81;10367007;28;20159;-51
2023/05/27 06:47:06;;;;;;;6.47;4.05;;;;;;;17.19;84.80;97783.75;10370537;28;20115;-51
2023/05/27 06:52:05;;;;;;;9.40;4.47;;;;;;;17.38;85.24;97778.84;10367102;28;20520;-52
2023/05/27 06:57:04;;;;;;;7.05;4.45;;;;;;;17.57;83.91;97784.44;10361628;28;20087;-50
2023/05/27 07:02:03;;;;;;;4.70;4.30;;;;;;;17.53;83.91;97780.19;10361885;28;20136;-52
2023/05/27 07:07:02;;;;;;;5.65;4.28;;;;;;;17.20;83.21;97777.59;10361824;28;20145;-52
2023/05/27 07:12:02;;;;;;;7.47;4.70;;;;;;;17.10;84.34;97784.00;10354472;28;20115;-52
2023/05/27 07:17:01;;;;;;;8.18;5.38;;;;;;;16.91;86.57;97783.59;10366624;28;20063;-52
2023/05/27 07:22:00;;;;;;;8.27;5.70;;;;;;;16.89;86.33;97793.28;10361931;28;20133;-51
2023/05/27 07:26:59;;;;;;;11.80;6.53;;;;;;;16.80;89.16;97791.72;10366238;28;20108;-52
2023/05/27 07:31:58;;;;;;;8.68;6.35;;;;;;;16.65;89.79;97797.31;10368805;28;20083;-53
2023/05/27 07:36:57;;;;;;;8.73;5.38;;;;;;;16.50;90.45;97793.34;10367872;28;20036;-51
2023/05/27 07:41:56;;;;;;;7.75;6.15;;;;;;;16.54;91.48;97794.13;10367501;28;20089;-52
2023/05/27 07:46:55;;;;;;;10.05;6.93;;;;;;;16.41;92.26;97778.69;10368081;28;20037;-50
2023/05/27 07:51:54;;;;;;;10.23;7.30;;;;;;;16.55;92.39;97790.59;10365547;28;20044;-51
2023/05/27 07:56:53;;;;;;;10.00;7.80;;;;;;;16.74;92.61;97797.09;10367668;28;20068;-53
2023/05/27 08:01:52;;;;;;;11.57;8.25;;;;;;;16.90;92.17;97793.22;10349693;28;20036;-49
2023/05/27 08:06:51;;;;;;;13.98;9.07;;;;;;;17.16;90.90;97793.44;10366690;28;20033;-53
2023/05/27 08:11:50;;;;;;;11.23;8.30;;;;;;;17.33;89.30;97788.59;10366193;28;20033;-51
2023/05/27 08:16:50;;;;;;;12.25;7.90;;;;;;;17.63;87.89;97794.75;10359616;28;20063;-53
2023/05/27 08:21:49;;;;;;;9.57;7.72;;;;;;;17.94;87.61;97796.50;10362261;28;20072;-53
2023/05/27 08:26:49;;;;;;;11.35;7.82;;;;;;;18.25;85.80;97793.81;10361156;28;20087;-53
2023/05/27 08:31:51;;;;;;;10.40;7.30;;;;;;;18.67;83.80;97790.72;10361121;28;20520;-50
2023/05/27 08:36:50;;;;;;;9.02;7.70;;;;;;;19.08;81.19;97750.78;10362220;28;20124;-53
2023/05/27 08:41:50;;;;;;;12.15;9.30;;;;;;;19.91;79.32;97777.59;10356215;28;20163;-51
2023/05/27 08:46:50;;;;;;;21.35;19.25;;;;;;;20.07;75.12;97746.25;10364257;28;20065;-53
2023/05/27 08:51:50;;;;;;;28.58;25.70;;;;;;;20.65;73.90;97780.81;10363064;28;20068;-49
2023/05/27 08:56:53;;;;;;;27.30;24.58;;;;;;;20.97;73.52;97781.25;10362378;28;20516;-53
2023/05/27 09:01:54;;;;;;;18.48;16.58;;;;;;;21.26;70.81;97781.81;10366536;28;20048;-50
2023/05/27 09:06:53;;;;;;;22.45;20.08;;;;;;;21.58;68.90;97779.53;10371469;28;20068;-51
2023/05/27 09:11:53;;;;;;;14.65;11.55;;;;;;;21.59;66.62;97779.44;10373183;28;20084;-52
2023/05/27 09:16:52;;;;;;;10.90;8.90;;;;;;;21.45;66.35;97772.19;10373310;28;20080;-52
2023/05/27 09:21:52;;;;;;;9.50;7.43;;;;;;;21.36;68.43;97769.94;10374296;28;20147;-51
2023/05/27 09:26:52;;;;;;;8.98;6.47;;;;;;;20.92;67.92;97772.69;10364929;28;20115;-52
2023/05/27 09:31:55;;;;;;;6.28;5.40;;;;;;;20.96;68.39;97747.03;10373858;28;20092;-51
2023/05/27 09:36:54;;;;;;;8.48;5.97;;;;;;;21.52;68.41;97763.06;10372080;28;20076;-52
2023/05/27 09:41:55;;;;;;;8.73;5.63;;;;;;;22.02;63.46;97755.53;10372531;28;20123;-51
2023/05/27 09:46:56;;;;;;;8.40;5.53;;;;;;;22.10;63.48;97746.28;10373106;28;20132;-51
2023/05/27 09:51:57;;;;;;;6.38;5.70;;;;;;;22.30;59.50;97736.56;10372613;28;20075;-50
2023/05/27 09:56:57;;;;;;;11.10;7.75;;;;;;;22.28;59.06;97744.56;10371956;28;20072;-52
2023/05/27 10:01:57;;;;;;;11.75;5.82;;;;;;;22.17;59.90;97744.22;10373747;28;20238;-52
2023/05/27 10:06:57;;;;;;;8.02;5.65;;;;;;;21.98;60.08;97731.00;10370200;28;20073;-52
2023/05/27 10:11:56;;;;;;;7.70;6.18;;;;;;;22.42;59.45;97725.38;10370687;28;20741;-53
2023/05/27 10:16:56;;;;;;;11.75;8.00;;;;;;;22.90;59.01;97715.91;10370365;28;20068;-51
2023/05/27 10:21:55;;;;;;;7.13;6.10;;;;;;;23.39;58.47;97721.28;10367472;28;20091;-52
2023/05/27 10:27:03;;;;;;;7.15;5.65;;;;;;;23.74;58.48;97667.38;10369567;28;20478;-53
2023/05/27 10:32:02;;;;;;;9.43;6.53;;;;;;;24.04;52.36;97686.00;10369194;28;20075;-52
2023/05/27 10:37:01;;;;;;;8.75;5.70;;;;;;;24.49;52.86;97695.75;10369207;28;20532;-52
2023/05/27 10:42:00;;;;;;;7.80;5.63;;;;;;;24.54;51.42;97698.16;10370594;28;20076;-51
2023/05/27 10:47:03;;;;;;;7.47;5.65;;;;;;;24.21;52.32;97693.84;10367473;28;20081;-51
2023/05/27 10:52:13;;;;;;;8.55;5.32;;;;;;;23.36;52.08;97660.56;10366223;28;20120;-50
2023/05/27 10:57:12;;;;;;;7.90;5.63;;;;;;;23.40;54.16;97678.00;10366774;28;20448;-50
2023/05/27 11:02:12;;;;;;;7.45;5.03;;;;;;;23.48;53.02;97679.41;10366062;28;20084;-52
2023/05/27 11:07:17;;;;;;;7.10;5.03;;;;;;;23.43;52.75;97675.16;10369834;28;20068;-52
2023/05/27 11:12:21;;;;;;;5.97;5.10;;;;;;;23.58;52.27;97668.22;10368506;28;20128;-52
2023/05/27 11:17:21;;;;;;;8.60;5.78;;;;;;;23.62;52.68;97659.16;10368241;28;20128;-52
2023/05/27 11:22:20;;;;;;;6.57;4.75;;;;;;;23.08;53.39;97641.81;10369315;28;20064;-52
2023/05/27 11:27:19;;;;;;;7.10;5.07;;;;;;;23.40;53.52;97653.31;10367540;28;20068;-53
2023/05/27 11:32:20;;;;;;;6.35;4.68;;;;;;;23.61;52.43;97646.84;10368346;28;20068;-52
2023/05/27 11:37:19;;;;;;;9.77;5.57;;;;;;;23.63;52.33;97636.16;10367384;28;20072;-52
2023/05/27 11:42:22;;;;;;;8.13;5.30;;;;;;;23.59;51.52;97635.50;10368399;28;20041;-52
2023/05/27 11:47:22;;;;;;;6.60;5.28;;;;;;;23.74;51.72;97615.22;10368591;28;20080;-52
2023/05/27 11:52:25;;;;;;;7.80;5.22;;;;;;;23.73;49.64;97586.19;10360862;28;20116;-53
2023/05/27 11:57:25;;;;;;;5.88;4.97;;;;;;;23.63;49.17;97613.19;10360316;28;20128;-51
2023/05/27 12:02:24;;;;;;;6.15;5.00;;;;;;;23.56;48.80;97606.53;10356163;28;20116;-52
2023/05/27 12:07:22;;;;;;;7.10;5.65;;;;;;;23.46;51.41;97599.13;10353895;28;20056;-51
2023/05/27 12:12:21;;;;;;;6.50;5.85;;;;;;;24.09;54.70;97588.50;10360087;28;20107;-52
2023/05/27 12:17:20;;;;;;;5.80;5.10;;;;;;;24.21;49.66;97577.19;10352691;28;20025;-52
2023/05/27 12:22:19;;;;;;;8.93;5.68;;;;;;;24.24;47.72;97570.88;10364027;28;20248;-52
2023/05/27 12:27:20;;;;;;;6.38;5.57;;;;;;;23.89;48.86;97571.09;10362023;28;20124;-52
2023/05/27 12:32:19;;;;;;;8.20;5.20;;;;;;;24.01;49.55;97554.50;10364122;28;20083;-53
2023/05/27 12:37:18;;;;;;;8.15;5.40;;;;;;;24.31;49.89;97550.13;10365605;28;20032;-52
2023/05/27 12:42:17;;;;;;;6.53;5.00;;;;;;;24.12;50.20;97540.56;10365627;28;20048;-52
2023/05/27 12:47:16;;;;;;;6.95;5.40;;;;;;;23.97;49.09;97537.03;10364451;28;20119;-51
2023/05/27 12:52:15;;;;;;;12.57;5.90;;;;;;;24.23;49.93;97532.03;10365732;28;20115;-52
2023/05/27 12:57:14;;;;;;;5.97;5.00;;;;;;;24.08;48.73;97528.47;10366224;28;20156;-52
2023/05/27 13:02:13;;;;;;;7.25;5.20;;;;;;;23.71;49.92;97527.13;10365275;28;20152;-51
2023/05/27 13:07:12;;;;;;;8.15;5.97;;;;;;;23.77;50.18;97502.91;10363371;28;20433;-51
2023/05/27 13:12:11;;;;;;;6.88;5.50;;;;;;;24.15;49.96;97481.25;10365085;28;20116;-52
2023/05/27 13:17:10;;;;;;;8.50;5.50;;;;;;;24.64;49.74;97499.50;10364319;28;20428;-52
2023/05/27 13:22:09;;;;;;;6.57;5.40;;;;;;;24.60;47.42;97497.97;10357445;28;20021;-49
2023/05/27 13:27:08;;;;;;;8.68;6.07;;;;;;;24.57;48.91;97483.09;10343684;28;20064;-52
2023/05/27 13:32:08;;;;;;;8.52;6.03;;;;;;;24.73;48.09;97483.00;10358470;28;20044;-50
2023/05/27 13:37:07;;;;;;;9.82;5.53;;;;;;;24.27;48.58;97443.41;10350059;28;20125;-53
2023/05/27 13:42:06;;;;;;;9.25;5.70;;;;;;;24.22;50.05;97472.84;10354854;28;20054;-52
2023/05/27 13:47:05;;;;;;;5.78;5.10;;;;;;;24.63;48.48;97471.25;10356143;28;20044;-51
2023/05/27 13:52:04;;;;;;;8.27;5.43;;;;;;;24.74;49.22;97414.84;10363997;28;20138;-51
2023/05/27 13:57:04;;;;;;;7.40;5.80;;;;;;;25.08;45.91;97454.25;10371564;28;20025;-51
2023/05/27 14:02:05;;;;;;;9.55;5.97;;;;;;;24.74;45.75;97458.16;10370118;28;20128;-52
2023/05/27 14:07:04;;;;;;;11.88;6.40;;;;;;;24.58;47.36;97446.81;10368483;28;20124;-52
2023/05/27 14:12:04;;;;;;;7.90;5.88;;;;;;;24.72;48.20;97446.78;10360228;28;20079;-52
2023/05/27 14:17:03;;;;;;;7.13;6.15;;;;;;;23.93;46.95;97413.59;10359507;28;20052;-52
2023/05/27 14:22:02;;;;;;;6.88;5.68;;;;;;;24.12;47.81;97449.59;10361731;28;20887;-50
2023/05/27 14:27:01;;;;;;;6.82;5.72;;;;;;;24.45;46.72;97426.34;10362373;28;20065;-50
2023/05/27 14:32:00;;;;;;;7.70;5.97;;;;;;;24.63;46.13;97444.72;10366833;28;20081;-49
2023/05/27 14:36:59;;;;;;;7.70;5.88;;;;;;;24.59;45.72;97440.53;10365506;28;20036;-48
2023/05/27 14:41:58;;;;;;;11.65;6.80;;;;;;;24.76;46.03;97431.53;10366170;28;20580;-50
2023/05/27 14:46:57;;;;;;;7.05;5.75;;;;;;;24.67;46.69;97414.38;10365470;28;20048;-51
2023/05/27 14:51:56;;;;;;;8.63;6.07;;;;;;;24.66;45.70;97434.75;10367829;28;20039;-52
2023/05/27 14:56:55;;;;;;;6.32;5.25;;;;;;;24.83;45.64;97419.56;10367885;28;20479;-53
2023/05/27 15:01:54;;;;;;;6.07;5.15;;;;;;;25.28;44.27;97425.53;10367546;28;20411;-52
2023/05/27 15:06:53;;;;;;;9.55;5.78;;;;;;;25.37;44.38;97403.66;10368625;28;20021;-54
2023/05/27 15:11:52;;;;;;;7.97;5.57;;;;;;;25.61;43.83;97405.66;10364993;28;20120;-51
2023/05/27 15:16:51;;;;;;;6.55;5.85;;;;;;;25.41;43.43;97412.25;10364402;28;20116;-52
2023/05/27 15:21:50;;;;;;;8.30;5.43;;;;;;;25.04;43.84;97422.69;10368088;28;20068;-50
2023/05/27 15:26:48;;;;;;;6.30;5.43;;;;;;;24.70;43.51;97425.63;10368974;28;20192;-51
2023/05/27 15:31:48;;;;;;;9.85;5.43;;;;;;;24.65;44.30;97416.28;10368196;28;20524;-49
2023/05/27 15:36:46;;;;;;;8.23;5.95;;;;;;;24.03;44.74;97417.41;10360210;28;20116;-51
2023/05/27 15:41:45;;;;;;;7.47;5.97;;;;;;;23.93;46.02;97426.00;10362033;28;20048;-50
2023/05/27 15:46:44;;;;;;;6.80;5.95;;;;;;;23.59;46.05;97418.28;10364445;28;20059;-49
2023/05/27 15:51:43;;;;;;;9.98;6.63;;;;;;;23.54;46.91;97415.06;10354330;28;20047;-52
2023/05/27 15:56:44;;;;;;;7.85;5.80;;;;;;;23.35;46.08;97419.66;10360116;28;20029;-51
2023/05/27 16:01:42;;;;;;;7.20;5.50;;;;;;;23.16;47.31;97407.53;10366315;28;20087;-49
2023/05/27 16:06:41;;;;;;;9.65;6.50;;;;;;;23.26;48.43;97413.13;10366670;28;20071;-49
2023/05/27 16:11:40;;;;;;;9.65;5.97;;;;;;;23.17;47.79;97418.97;10366224;28;20032;-50
2023/05/27 16:16:39;;;;;;;7.88;6.57;;;;;;;23.03;48.29;97432.97;10365312;28;20025;-51
2023/05/27 16:21:39;;;;;;;11.10;6.63;;;;;;;22.79;47.26;97383.16;10365767;28;20517;-49
2023/05/27 16:26:39;;;;;;;11.02;7.57;;;;;;;22.94;46.95;97412.31;10365874;28;20578;-52
2023/05/27 16:31:38;;;;;;;8.85;6.57;;;;;;;22.81;46.88;97428.00;10366264;28;20123;-49
2023/05/27 16:36:37;;;;;;;10.02;7.30;;;;;;;22.59;46.77;97454.78;10366467;28;20032;-50
2023/05/27 16:41:36;;;;;;;9.73;7.10;;;;;;;22.49;46.68;97446.50;10365404;28;20111;-52
2023/05/27 16:46:35;;;;;;;9.43;7.25;;;;;;;22.16;47.27;97425.38;10367101;28;20045;-50
2023/05/27 16:51:35;;;;;;;10.68;7.50;;;;;;;22.14;48.13;97469.50;10365550;28;20071;-50
2023/05/27 16:56:35;;;;;;;9.90;6.65;;;;;;;22.03;49.29;97479.78;10365005;28;20095;-52
2023/05/27 17:01:34;;;;;;;11.85;6.65;;;;;;;21.85;50.15;97477.13;10365418;28;20084;-52
2023/05/27 17:06:34;;;;;;;10.32;6.90;;;;;;;21.57;51.50;97484.72;10366198;28;20033;-50
2023/05/27 17:11:33;;;;;;;10.02;7.13;;;;;;;21.32;52.72;97489.41;10364580;28;20076;-52
2023/05/27 17:16:31;;;;;;;10.10;7.20;;;;;;;21.08;53.74;97488.78;10365770;28;20045;-52
2023/05/27 17:21:30;;;;;;;13.07;8.70;;;;;;;21.04;54.62;97489.00;10364989;28;20029;-52
2023/05/27 17:26:30;;;;;;;10.93;6.78;;;;;;;20.75;54.79;97456.06;10368656;28;20496;-52
2023/05/27 17:31:29;;;;;;;12.43;7.60;;;;;;;20.78;55.19;97501.63;10373554;28;20079;-51
2023/05/27 17:36:28;;;;;;;11.40;7.55;;;;;;;20.11;56.21;97415.91;10372910;28;20553;-52
2023/05/27 17:41:27;;;;;;;12.32;7.57;;;;;;;20.55;56.76;97509.75;10372829;28;20220;-51
2023/05/27 17:46:26;;;;;;;10.27;6.72;;;;;;;20.24;55.56;97542.69;10373186;28;20789;-52
2023/05/27 17:51:26;;;;;;;6.03;4.57;;;;;;;19.67;52.92;97568.75;10368329;28;20742;-51
2023/05/27 17:56:25;;;;;;;6.10;4.10;;;;;;;19.31;52.24;97592.97;10365506;28;20571;-49
2023/05/27 18:01:24;;;;;;;7.70;3.47;;;;;;;19.11;52.86;97584.97;10367907;28;20140;-52
2023/05/27 18:06:23;;;;;;;6.63;3.95;;;;;;;18.73;53.38;97571.50;10369097;28;20452;-52
2023/05/27 18:11:22;;;;;;;6.22;3.95;;;;;;;18.57;55.34;97600.06;10368848;28;20131;-53
2023/05/27 18:16:22;;;;;;;6.60;4.60;;;;;;;18.36;57.15;97633.19;10365568;28;20029;-52
2023/05/27 18:21:21;;;;;;;5.68;4.50;;;;;;;18.14;59.70;97669.84;10348477;28;20072;-51
2023/05/27 18:26:20;;;;;;;4.97;4.00;;;;;;;17.86;60.21;97701.38;10365847;28;20156;-49
2023/05/27 18:31:19;;;;;;;5.25;3.80;;;;;;;17.74;60.58;97713.94;10362936;28;20120;-51
2023/05/27 18:36:18;;;;;;;7.57;4.22;;;;;;;17.58;61.02;97702.19;10365091;28;20429;-51
2023/05/27 18:41:17;;;;;;;7.85;3.95;;;;;;;17.60;61.16;97723.13;10366737;28;20120;-52
2023/05/27 18:46:16;;;;;;;8.20;4.32;;;;;;;16.92;69.72;97676.09;10369757;28;20039;-50
2023/05/27 18:51:15;;;;;;;8.85;4.95;;;;;;;16.92;73.97;97728.50;10366318;28;20033;-52
2023/05/27 18:56:14;;;;;;;7.65;4.60;;;;;;;16.25;78.83;97710.09;10366441;28;20611;-52
2023/05/27 19:01:13;;;;;;;8.68;5.10;;;;;;;16.18;79.80;97716.41;10362399;28;20084;-51
2023/05/27 19:06:12;;;;;;;9.85;5.15;;;;;;;16.22;80.27;97704.09;10367498;28;20115;-51
2023/05/27 19:11:11;;;;;;;9.68;5.30;;;;;;;16.21;80.88;97705.00;10365575;28;20098;-52
2023/05/27 19:16:10;;;;;;;9.60;5.93;;;;;;;16.21;80.87;97703.25;10364733;28;20068;-52
2023/05/27 19:21:09;;;;;;;6.82;4.82;;;;;;;16.25;80.27;97704.03;10365935;28;20041;-52
2023/05/27 19:26:08;;;;;;;12.40;5.50;;;;;;;16.27;79.93;97715.31;10365552;28;20127;-53
2023/05/27 19:31:08;;;;;;;10.20;5.25;;;;;;;16.37;79.24;97708.97;10366397;28;20040;-51
2023/05/27 19:36:07;;;;;;;6.93;5.07;;;;;;;16.38;78.47;97713.31;10362532;28;20060;-52
2023/05/27 19:41:06;;;;;;;6.57;4.63;;;;;;;16.24;78.30;97691.84;10366269;28;20072;-52
2023/05/27 19:46:05;;;;;;;11.20;5.55;;;;;;;16.27;77.93;97702.22;10368672;28;20115;-53
2023/05/27 19:51:06;;;;;;;6.32;5.03;;;;;;;16.21;78.22;97702.41;10365914;28;20124;-50
2023/05/27 19:56:05;;;;;;;10.75;6.07;;;;;;;16.20;78.04;97692.81;10363645;28;20076;-52
2023/05/27 20:01:04;;;;;;;7.10;5.45;;;;;;;16.12;78.68;97690.38;10367386;28;20064;-50
2023/05/27 20:06:03;;;;;;;9.30;6.30;;;;;;;16.10;78.53;97684.31;10363370;28;20033;-49
2023/05/27 20:11:02;;;;;;;7.40;5.15;;;;;;;15.97;79.47;97677.66;10365288;28;20571;-51
2023/05/27 20:16:01;;;;;;;8.70;5.68;;;;;;;15.90;80.32;97663.84;10362216;28;20473;-49
2023/05/27 20:21:00;;;;;;;10.30;6.40;;;;;;;15.84;80.68;97667.47;10362073;28;20566;-52
2023/05/27 20:25:59;;;;;;;9.35;6.20;;;;;;;15.75;81.47;97656.34;10362957;28;20045;-49
2023/05/27 20:30:58;;;;;;;9.02;6.53;;;;;;;15.63;82.68;97660.97;10366026;28;20080;-51
2023/05/27 20:35:57;;;;;;;9.30;6.53;;;;;;;15.48;83.78;97670.91;10363868;28;20033;-52
2023/05/27 20:40:56;;;;;;;;;;;;;;;15.43;84.20;97679.69;10364059;28;20175;-52
2023/05/27 20:45:55;;;;;;;10.30;7.27;;;;;;;15.37;84.87;97665.91;10363615;28;19955;-51
2023/05/27 20:50:53;;;;;;;;;;;;;;;15.27;84.97;97673.06;10364919;28;20414;-51
2023/05/27 20:55:52;;;;;;;14.87;7.23;;;;;;;15.22;85.61;97681.03;10364733;28;19956;-52
2023/05/27 21:00:51;;;;;;;;;;;;;;;15.19;85.33;97686.31;10362527;28;20040;-51
2023/05/27 21:05:50;;;;;;;10.77;7.33;;;;;;;15.12;85.01;97676.88;10361448;28;19917;-50
2023/05/27 21:10:49;;;;;;;;;;;;;;;15.07;85.78;97673.50;10364063;28;20697;-49
2023/05/27 21:15:48;;;;;;;9.73;7.50;;;;;;;15.07;85.62;97659.56;10362773;28;19912;-52
2023/05/27 21:20:47;;;;;;;11.80;8.73;;;;;;;14.92;86.46;97664.22;10365521;28;20083;-53
2023/05/27 21:25:46;;;;;;;14.88;9.95;;;;;;;14.82;87.18;97653.06;10360853;28;20076;-51
2023/05/27 21:30:45;;;;;;;11.95;7.30;;;;;;;14.79;86.76;97654.91;10360941;28;20485;-51
2023/05/27 21:35:44;;;;;;;;;;;;;;;14.85;86.75;97670.47;10364531;28;20043;-50
2023/05/27 21:40:43;;;;;;;13.03;6.93;;;;;;;14.77;86.94;97660.13;10360423;28;20390;-51
2023/05/27 21:45:42;;;;;;;;;;;;;;;14.76;86.49;97653.22;10364600;28;20680;-50
2023/05/27 21:50:41;;;;;;;18.57;8.50;;;;;;;14.67;87.28;97658.56;10363049;28;20069;-50
2023/05/27 21:55:39;;;;;;;;;;;;;;;14.69;87.34;97656.78;10360852;28;20037;-50
2023/05/27 22:00:39;;;;;;;11.90;7.27;;;;;;;14.71;87.43;97648.94;10362799;28;19913;-50
2023/05/27 22:05:39;;;;;;;11.23;6.22;;;;;;;14.44;88.36;97634.63;10362575;28;20116;-50
2023/05/27 22:10:38;;;;;;;13.95;7.18;;;;;;;14.60;87.70;97656.97;10357871;28;20580;-52
2023/05/27 22:15:37;;;;;;;;;;;;;;;14.67;87.63;97653.34;10365854;28;20592;-50
2023/05/27 22:20:36;;;;;;;12.47;6.30;;;;;;;14.68;87.50;97657.66;10361920;28;20398;-49
2023/05/27 22:25:35;;;;;;;;;;;;;;;14.70;87.86;97660.25;10369168;28;20498;-51
2023/05/27 22:30:33;;;;;;;10.07;6.22;;;;;;;14.70;87.41;97648.09;10368538;28;20314;-52
2023/05/27 22:35:34;;;;;;;;;;;;;;;14.69;88.08;97645.50;10369406;28;20035;-49
2023/05/27 22:40:33;;;;;;;9.07;6.45;;;;;;;14.67;88.56;97647.28;10368816;28;19971;-49
2023/05/27 22:45:31;;;;;;;;;;;;;;;14.61;89.93;97648.22;10368714;28;20031;-52
2023/05/27 22:50:30;;;;;;;9.57;7.17;;;;;;;14.52;90.44;97620.56;10370322;28;20010;-50
2023/05/27 22:55:30;;;;;;;;;;;;;;;14.63;91.03;97631.63;10366178;28;20029;-50
2023/05/27 23:00:28;;;;;;;10.43;6.80;;;;;;;14.68;91.32;97636.78;10366633;28;20011;-50
2023/05/27 23:05:27;;;;;;;;;;;;;;;14.67;91.80;97622.00;10369705;28;20041;-49
2023/05/27 23:10:26;;;;;;;10.23;7.73;;;;;;;14.56;92.18;97600.47;10369568;28;20350;-51
2023/05/27 23:15:26;;;;;;;;;;;;;;;14.59;92.37;97608.22;10368590;28;20559;-51